Ashford, Alabama
Current Conditions -  °F | °C
As of 8:53 PM on Saturday 20 Dec 2014 (Local Time) from KDHN Reporting Station
Overcast Overcast  
Wind Chill: 52°   Ceiling: 800
Heat Index: 52°   Visibility: 10mi
Dew Point: 50°   Wind: 9mph
Humidity: 93%   Direction: 40°NE
Pressure: 30.18"   Gusts: NA
Location:  31.18°N, 85.24°W
Report Text: KDHN 210253Z AUTO 04008KT 10SM OVC008 11/10 A3018 RMK AO2 SLP220 60000 T01110100 53007
Loading
Personal Weather Stations






























Interactive Weather Map New forecast layout! Learn more

10-Day Weather Forecast

Advertisements
Track Severe Weather on mobile